Time;durP1;ratioP1;P1;durP2;ratioP2;P2;SDS_P1;SDS_P2;PMS_P1;PMS_P2;Temp;Humidity;BMP_temperature;BMP_pressure;BME280_temperature;BME280_humidity;BME280_pressure;Samples;Min_cycle;Max_cycle;Signal;HPM_P1;HPM_P2
2023/12/31 00:01:18;;;;;;;7.10;4.43;;;;;;;6.49;100.00;100848.00;6118531;28;20250;-69
2023/12/31 00:04:39;;;;;;;7.93;4.47;;;;;;;6.39;100.00;100841.59;6125477;28;20239;-69
2023/12/31 00:08:00;;;;;;;6.70;4.13;;;;;;;6.34;100.00;100843.78;6126606;28;20598;-69
2023/12/31 00:11:21;;;;;;;6.20;3.43;;;;;;;6.28;100.00;100847.72;6123353;28;20235;-69
2023/12/31 00:14:43;;;;;;;9.30;6.90;;;;;;;6.32;100.00;100833.16;6120389;28;20243;-69
2023/12/31 00:18:05;;;;;;;9.57;7.30;;;;;;;6.27;100.00;100835.31;6130893;28;20254;-69
2023/12/31 00:21:26;;;;;;;6.07;5.50;;;;;;;6.25;100.00;100834.56;6120345;28;20235;-70
2023/12/31 00:24:51;;;;;;;13.40;7.83;;;;;;;6.31;100.00;100827.91;6125043;28;20243;-69
2023/12/31 00:28:11;;;;;;;15.67;13.83;;;;;;;6.37;100.00;100828.34;6119968;28;20242;-69
2023/12/31 00:31:34;;;;;;;14.10;5.70;;;;;;;6.31;100.00;100836.81;6125291;28;20231;-68
2023/12/31 00:34:55;;;;;;;5.87;5.37;;;;;;;6.31;100.00;100828.78;6130515;28;20314;-69
2023/12/31 00:38:16;;;;;;;7.07;5.67;;;;;;;6.36;100.00;100823.09;6146410;28;21108;-69
2023/12/31 00:41:37;;;;;;;5.83;3.67;;;;;;;6.20;100.00;100809.09;6149434;28;20255;-69
2023/12/31 00:44:58;;;;;;;6.23;4.30;;;;;;;6.26;100.00;100812.19;6141762;28;21148;-68
2023/12/31 00:48:20;;;;;;;10.13;4.83;;;;;;;6.32;100.00;100810.91;6135484;28;20271;-68
2023/12/31 00:51:41;;;;;;;3.93;3.60;;;;;;;6.30;100.00;100812.84;6127129;28;20242;-69
2023/12/31 00:55:02;;;;;;;6.60;4.13;;;;;;;6.23;100.00;100814.22;6134482;28;20239;-68
2023/12/31 00:58:23;;;;;;;5.90;4.17;;;;;;;6.29;100.00;100811.97;6133189;28;20254;-68
2023/12/31 01:01:44;;;;;;;7.30;4.10;;;;;;;6.44;100.00;100802.84;6125136;28;20254;-69
2023/12/31 01:05:07;;;;;;;5.33;3.60;;;;;;;6.52;100.00;100799.59;6127342;28;20242;-68
2023/12/31 01:08:29;;;;;;;5.67;3.50;;;;;;;6.50;100.00;100795.31;6138981;28;20787;-68
2023/12/31 01:11:49;;;;;;;5.67;3.60;;;;;;;6.55;100.00;100796.66;6132629;28;20235;-68
2023/12/31 01:15:11;;;;;;;4.07;3.53;;;;;;;6.51;100.00;100797.84;6127181;28;20243;-68
2023/12/31 01:18:32;;;;;;;3.97;3.13;;;;;;;6.46;100.00;100786.66;6126529;28;20732;-68
2023/12/31 01:21:55;;;;;;;3.83;2.93;;;;;;;6.50;100.00;100788.13;6136794;28;20238;-69
2023/12/31 01:25:16;;;;;;;8.63;4.67;;;;;;;6.57;100.00;100781.34;6138138;28;20609;-68
2023/12/31 01:28:37;;;;;;;3.50;3.10;;;;;;;6.47;100.00;100781.16;6139174;28;20243;-69
2023/12/31 01:31:59;;;;;;;5.33;3.57;;;;;;;6.56;100.00;100765.38;6154896;28;20258;-68
2023/12/31 01:35:20;;;;;;;7.57;3.70;;;;;;;6.39;100.00;100772.84;6142876;28;20230;-69
2023/12/31 01:38:44;;;;;;;5.07;2.90;;;;;;;6.31;100.00;100769.88;6128631;28;20235;-68
2023/12/31 01:42:05;;;;;;;5.67;3.47;;;;;;;6.29;100.00;100763.78;6136239;28;20239;-68
2023/12/31 01:45:26;;;;;;;5.07;3.77;;;;;;;6.41;100.00;100762.03;6140195;28;20227;-69
2023/12/31 01:48:47;;;;;;;7.83;3.60;;;;;;;6.29;100.00;100761.09;6128718;28;20239;-68
2023/12/31 01:52:08;;;;;;;10.47;4.40;;;;;;;6.30;100.00;100760.13;6134932;28;20247;-68
2023/12/31 01:55:30;;;;;;;4.33;3.83;;;;;;;6.45;100.00;100755.47;6141220;28;20238;-68
2023/12/31 01:58:52;;;;;;;4.60;2.90;;;;;;;6.41;100.00;100746.81;6137936;28;20612;-69
2023/12/31 02:02:13;;;;;;;4.97;3.07;;;;;;;6.34;100.00;100740.19;6138757;28;20234;-69
2023/12/31 02:05:34;;;;;;;4.10;3.40;;;;;;;6.36;100.00;100751.66;6130754;28;20790;-68
2023/12/31 02:08:55;;;;;;;6.50;3.30;;;;;;;6.36;100.00;100745.47;6133643;28;20664;-67
2023/12/31 02:12:18;;;;;;;6.07;3.17;;;;;;;6.42;100.00;100745.84;6128363;28;20337;-69
2023/12/31 02:15:39;;;;;;;4.90;3.27;;;;;;;6.30;100.00;100744.06;6129545;28;20231;-68
2023/12/31 02:19:00;;;;;;;8.43;3.30;;;;;;;6.31;100.00;100744.94;6130373;28;20231;-68
2023/12/31 02:22:22;;;;;;;6.70;2.87;;;;;;;6.28;100.00;100742.47;6126854;28;20239;-69
2023/12/31 02:25:48;;;;;;;9.13;3.13;;;;;;;6.41;100.00;100743.28;6142120;28;20234;-69
2023/12/31 02:29:10;;;;;;;6.00;3.20;;;;;;;6.42;100.00;100732.44;6127619;28;20231;-68
2023/12/31 02:32:31;;;;;;;4.87;2.60;;;;;;;6.34;100.00;100740.19;6138073;28;20609;-70
2023/12/31 02:35:52;;;;;;;5.40;3.80;;;;;;;6.32;100.00;100736.78;6124714;28;20562;-68
2023/12/31 02:39:13;;;;;;;3.10;2.73;;;;;;;6.34;100.00;100724.13;6128638;28;20492;-68
2023/12/31 02:42:34;;;;;;;3.53;2.53;;;;;;;6.34;100.00;100715.28;6130177;28;20235;-69
2023/12/31 02:45:57;;;;;;;4.63;2.67;;;;;;;6.34;100.00;100716.09;6128527;28;20227;-69
2023/12/31 02:49:22;;;;;;;6.57;3.30;;;;;;;6.30;100.00;100706.59;6157251;28;20551;-69
2023/12/31 02:52:43;;;;;;;3.30;2.23;;;;;;;6.42;100.00;100703.00;6123067;28;20357;-69
2023/12/31 02:56:05;;;;;;;3.30;2.30;;;;;;;6.43;100.00;100699.38;6129183;28;20227;-69
2023/12/31 02:59:26;;;;;;;3.47;1.83;;;;;;;6.56;100.00;100695.75;6117058;28;20616;-69
2023/12/31 03:02:48;;;;;;;2.27;2.07;;;;;;;6.42;100.00;100689.59;6128472;28;20246;-68
2023/12/31 03:06:09;;;;;;;3.47;2.03;;;;;;;6.53;100.00;100683.44;6124394;28;20235;-69
2023/12/31 03:09:30;;;;;;;2.03;1.73;;;;;;;6.56;100.00;100677.88;6122872;28;20235;-69
2023/12/31 03:12:51;;;;;;;4.27;1.77;;;;;;;6.52;100.00;100668.38;6142457;28;20238;-69
2023/12/31 03:16:12;;;;;;;1.97;1.70;;;;;;;6.45;100.00;100675.16;6122230;28;20239;-68
2023/12/31 03:19:37;;;;;;;4.10;2.90;;;;;;;6.52;100.00;100670.19;6129772;28;20621;-68
2023/12/31 03:22:58;;;;;;;3.30;2.53;;;;;;;6.59;100.00;100668.78;6137441;28;20246;-69
2023/12/31 03:26:19;;;;;;;2.23;1.70;;;;;;;6.70;100.00;100671.47;6126232;28;20234;-68
2023/12/31 03:29:40;;;;;;;5.27;2.60;;;;;;;6.57;100.00;100668.88;6126391;28;20235;-68
2023/12/31 03:33:03;;;;;;;2.53;2.33;;;;;;;6.37;100.00;100664.16;6125831;28;20325;-68
2023/12/31 03:36:26;;;;;;;4.13;2.07;;;;;;;6.47;100.00;100653.63;6154174;28;20250;-69
2023/12/31 03:39:47;;;;;;;3.33;2.57;;;;;;;6.59;100.00;100647.34;6132237;28;20239;-69
2023/12/31 03:43:08;;;;;;;3.10;1.87;;;;;;;6.51;100.00;100639.03;6130037;28;20234;-69
2023/12/31 03:46:29;;;;;;;3.47;1.67;;;;;;;6.72;100.00;100634.69;6133449;28;20314;-69
2023/12/31 03:49:49;;;;;;;2.03;1.83;;;;;;;6.62;100.00;100634.56;6121896;28;20265;-69
2023/12/31 03:53:12;;;;;;;2.30;2.10;;;;;;;6.64;100.00;100621.06;6124695;28;20262;-69
2023/12/31 03:56:33;;;;;;;1.97;1.37;;;;;;;6.59;100.00;100618.75;6125561;28;20326;-69
2023/12/31 03:59:54;;;;;;;1.83;1.73;;;;;;;6.59;100.00;100612.53;6130803;28;20326;-69
2023/12/31 04:03:15;;;;;;;3.03;1.50;;;;;;;6.70;100.00;100604.50;6133880;28;20309;-69
2023/12/31 04:06:36;;;;;;;2.10;2.00;;;;;;;6.61;100.00;100610.59;6132962;28;20234;-69
2023/12/31 04:09:59;;;;;;;3.83;2.03;;;;;;;6.60;100.00;100595.47;6138197;28;20235;-69
2023/12/31 04:13:20;;;;;;;2.10;1.87;;;;;;;6.68;100.00;100611.81;6136075;28;20538;-69
2023/12/31 04:16:41;;;;;;;3.37;1.70;;;;;;;6.58;100.00;100605.47;6133960;28;20227;-69
2023/12/31 04:20:02;;;;;;;1.60;1.50;;;;;;;6.64;100.00;100595.13;6128597;28;20618;-69
2023/12/31 04:23:23;;;;;;;6.80;2.70;;;;;;;6.59;100.00;100593.78;6146651;28;20326;-69
2023/12/31 04:26:45;;;;;;;3.87;2.37;;;;;;;6.63;100.00;100587.22;6141675;28;20602;-69
2023/12/31 04:30:07;;;;;;;6.77;2.27;;;;;;;6.68;100.00;100595.75;6152260;28;20278;-69
2023/12/31 04:33:28;;;;;;;4.03;2.00;;;;;;;6.65;100.00;100587.97;6136243;28;20783;-68
2023/12/31 04:36:49;;;;;;;2.00;1.80;;;;;;;6.76;100.00;100567.38;6145357;28;20227;-69
2023/12/31 04:40:11;;;;;;;2.70;1.67;;;;;;;6.78;100.00;100562.75;6134245;28;20234;-70
2023/12/31 04:43:34;;;;;;;1.90;1.63;;;;;;;6.77;100.00;100560.22;6144525;28;20231;-69
2023/12/31 04:46:54;;;;;;;2.07;1.87;;;;;;;6.84;100.00;100554.25;6131200;28;20239;-68
2023/12/31 04:50:16;;;;;;;2.47;1.67;;;;;;;6.94;100.00;100547.22;6139443;28;20334;-69
2023/12/31 04:53:38;;;;;;;8.83;2.07;;;;;;;6.82;100.00;100547.31;6138006;28;20337;-69
2023/12/31 04:56:58;;;;;;;2.30;2.20;;;;;;;6.74;100.00;100545.22;6147063;28;20243;-68
2023/12/31 05:00:21;;;;;;;2.53;1.40;;;;;;;6.65;100.00;100531.72;6147482;28;20239;-68
2023/12/31 05:03:43;;;;;;;2.27;2.00;;;;;;;6.61;100.00;100527.56;6136089;28;20464;-68
2023/12/31 05:07:05;;;;;;;2.80;2.30;;;;;;;6.64;100.00;100525.50;6134848;28;20227;-69
2023/12/31 05:10:26;;;;;;;2.53;2.17;;;;;;;6.74;100.00;100515.75;6137803;28;20235;-69
2023/12/31 05:13:46;;;;;;;2.80;2.17;;;;;;;6.83;100.00;100507.00;6128941;28;20235;-70
2023/12/31 05:17:09;;;;;;;2.93;1.70;;;;;;;6.82;100.00;100493.75;6134201;28;20258;-70
2023/12/31 05:20:30;;;;;;;1.93;1.83;;;;;;;6.81;100.00;100486.66;6125966;28;20235;-68
2023/12/31 05:23:51;;;;;;;1.70;1.50;;;;;;;6.81;100.00;100484.00;6125471;28;20235;-68
2023/12/31 05:27:12;;;;;;;4.23;1.80;;;;;;;6.76;100.00;100483.53;6128546;28;20235;-69
2023/12/31 05:30:33;;;;;;;1.73;1.50;;;;;;;6.86;100.00;100484.50;6130871;28;20240;-69
2023/12/31 05:33:55;;;;;;;2.13;1.83;;;;;;;6.65;100.00;100480.81;6129985;28;20514;-69
2023/12/31 05:37:16;;;;;;;3.40;1.20;;;;;;;6.67;100.00;100466.34;6125173;28;20235;-69
2023/12/31 05:40:37;;;;;;;2.90;1.80;;;;;;;6.78;100.00;100474.38;6126219;28;20242;-69
2023/12/31 05:43:58;;;;;;;1.97;1.77;;;;;;;6.86;100.00;100466.56;6123495;28;20226;-68
2023/12/31 05:47:19;;;;;;;1.63;1.47;;;;;;;6.87;100.00;100446.84;6127106;28;20234;-69
2023/12/31 05:50:41;;;;;;;2.20;1.87;;;;;;;6.88;100.00;100461.09;6130214;28;20313;-69
2023/12/31 05:54:02;;;;;;;2.43;1.70;;;;;;;6.81;100.00;100460.75;6129620;28;20635;-69
2023/12/31 05:57:23;;;;;;;6.33;2.57;;;;;;;6.86;100.00;100457.69;6129641;28;20235;-69
2023/12/31 06:00:43;;;;;;;3.23;1.40;;;;;;;7.01;100.00;100437.69;6122697;28;20235;-70
2023/12/31 06:04:05;;;;;;;1.97;1.87;;;;;;;6.96;100.00;100434.53;6123569;28;20609;-69
2023/12/31 06:07:27;;;;;;;2.50;1.83;;;;;;;6.90;100.00;100425.19;6124917;28;20785;-69
2023/12/31 06:10:48;;;;;;;2.93;1.70;;;;;;;6.87;100.00;100414.69;6127079;28;20235;-69
2023/12/31 06:14:09;;;;;;;3.43;2.23;;;;;;;6.87;100.00;100403.13;6127630;28;20243;-68
2023/12/31 06:17:30;;;;;;;2.33;2.13;;;;;;;6.89;100.00;100398.50;6132047;28;20633;-69
2023/12/31 06:20:51;;;;;;;1.47;1.37;;;;;;;6.77;100.00;100391.47;6130081;28;20231;-68
2023/12/31 06:24:13;;;;;;;5.57;1.73;;;;;;;6.67;100.00;100394.03;6129476;28;20231;-68
2023/12/31 06:27:34;;;;;;;3.50;1.73;;;;;;;6.78;100.00;100403.88;6128726;28;20236;-69
2023/12/31 06:30:55;;;;;;;5.17;1.90;;;;;;;6.70;100.00;100412.53;6126996;28;20231;-68
2023/12/31 06:34:16;;;;;;;3.17;1.53;;;;;;;6.62;100.00;100403.41;6128830;28;20239;-68
2023/12/31 06:37:37;;;;;;;4.53;1.50;;;;;;;6.56;100.00;100406.56;6125732;28;20239;-68
2023/12/31 06:41:06;;;;;;;1.53;1.43;;;;;;;6.58;100.00;100405.47;6130393;28;20524;-69
2023/12/31 06:44:29;;;;;;;2.20;2.00;;;;;;;6.68;100.00;100395.72;6126750;28;20571;-68
2023/12/31 06:47:50;;;;;;;3.03;2.43;;;;;;;6.64;100.00;100390.72;6131280;28;20621;-69
2023/12/31 06:51:11;;;;;;;3.80;2.50;;;;;;;6.60;100.00;100389.28;6127373;28;20239;-69
2023/12/31 06:54:32;;;;;;;1.50;1.40;;;;;;;6.59;100.00;100372.38;6129825;28;20235;-69
2023/12/31 06:57:55;;;;;;;3.23;1.77;;;;;;;6.50;100.00;100373.13;6118036;28;20520;-68
2023/12/31 07:01:16;;;;;;;2.73;1.60;;;;;;;6.46;100.00;100360.94;6122502;28;20358;-69
2023/12/31 07:04:37;;;;;;;1.63;1.50;;;;;;;6.59;100.00;100358.13;6127725;28;20231;-69
2023/12/31 07:07:58;;;;;;;2.73;2.03;;;;;;;6.57;100.00;100360.09;6124116;28;20235;-69
2023/12/31 07:11:19;;;;;;;1.97;1.87;;;;;;;6.62;100.00;100353.38;6127170;28;20231;-68
2023/12/31 07:14:41;;;;;;;3.03;1.67;;;;;;;6.57;100.00;100352.06;6122956;28;20235;-69
2023/12/31 07:18:03;;;;;;;2.23;1.80;;;;;;;6.60;100.00;100357.16;6129439;28;20816;-71
2023/12/31 07:21:24;;;;;;;1.83;1.50;;;;;;;6.61;100.00;100348.16;6123098;28;20290;-68
2023/12/31 07:24:45;;;;;;;3.23;2.23;;;;;;;6.51;100.00;100349.88;6122099;28;20676;-69
2023/12/31 07:28:06;;;;;;;3.17;2.90;;;;;;;6.47;100.00;100337.72;6125150;28;20251;-68
2023/12/31 07:31:28;;;;;;;2.33;1.83;;;;;;;6.49;100.00;100346.47;6128857;28;20235;-68
2023/12/31 07:34:50;;;;;;;3.03;1.73;;;;;;;6.51;100.00;100345.34;6125773;28;20230;-69
2023/12/31 07:38:11;;;;;;;1.63;1.50;;;;;;;6.57;100.00;100341.34;6121472;28;20231;-69
2023/12/31 07:41:32;;;;;;;2.63;1.63;;;;;;;6.54;100.00;100341.56;6124759;28;20235;-69
2023/12/31 07:44:53;;;;;;;2.17;1.97;;;;;;;6.55;100.00;100343.28;6124276;28;20231;-69
2023/12/31 07:48:16;;;;;;;3.67;1.90;;;;;;;6.50;100.00;100340.97;6128731;28;20235;-68
2023/12/31 07:51:37;;;;;;;1.90;1.80;;;;;;;6.41;100.00;100331.88;6125397;28;20310;-69
2023/12/31 07:54:58;;;;;;;1.70;1.33;;;;;;;6.39;100.00;100327.59;6129736;28;20246;-68
2023/12/31 07:58:19;;;;;;;2.63;1.93;;;;;;;6.34;100.00;100321.78;6126303;28;20616;-69
2023/12/31 08:01:39;;;;;;;1.47;1.27;;;;;;;6.43;100.00;100318.34;6123363;28;20275;-69
2023/12/31 08:05:03;;;;;;;1.47;1.37;;;;;;;6.40;100.00;100313.25;6126547;28;20231;-68
2023/12/31 08:08:24;;;;;;;1.67;1.57;;;;;;;6.47;100.00;100319.78;6124624;28;20824;-69
2023/12/31 08:11:45;;;;;;;5.97;2.53;;;;;;;6.56;100.00;100312.84;6127455;28;20231;-69
2023/12/31 08:15:07;;;;;;;6.20;1.60;;;;;;;6.47;100.00;100309.94;6123548;28;21383;-68
2023/12/31 08:18:28;;;;;;;4.17;1.97;;;;;;;6.66;100.00;100295.91;6122787;28;20238;-68
2023/12/31 08:21:50;;;;;;;5.53;2.53;;;;;;;6.39;100.00;100293.66;6130854;28;20709;-69
2023/12/31 08:25:12;;;;;;;2.20;1.50;;;;;;;6.48;100.00;100292.06;6126647;28;20231;-69
2023/12/31 08:28:33;;;;;;;3.97;2.67;;;;;;;6.41;100.00;100281.00;6126455;28;20235;-69
2023/12/31 08:31:55;;;;;;;2.87;1.60;;;;;;;6.42;100.00;100273.84;6122499;28;20235;-69
2023/12/31 08:35:16;;;;;;;3.73;1.60;;;;;;;6.30;100.00;100275.66;6122277;28;20618;-68
2023/12/31 08:38:38;;;;;;;3.80;2.20;;;;;;;6.36;100.00;100272.47;6128967;28;20314;-69
2023/12/31 08:41:59;;;;;;;2.30;1.57;;;;;;;6.29;100.00;100273.97;6132482;28;20242;-69
2023/12/31 08:45:20;;;;;;;4.10;2.20;;;;;;;6.38;100.00;100262.50;6127047;28;20699;-69
2023/12/31 08:48:42;;;;;;;1.80;1.60;;;;;;;6.38;100.00;100254.47;6137395;28;20316;-68
2023/12/31 08:52:04;;;;;;;3.23;1.30;;;;;;;6.37;100.00;100247.44;6128497;28;20243;-69
2023/12/31 08:55:26;;;;;;;2.40;2.17;;;;;;;6.38;100.00;100229.56;6135240;28;20253;-68
2023/12/31 08:58:47;;;;;;;2.07;1.60;;;;;;;6.47;100.00;100243.00;6125108;28;20257;-69
2023/12/31 09:02:08;;;;;;;2.63;2.10;;;;;;;6.46;100.00;100229.75;6126642;28;20519;-68
2023/12/31 09:05:29;;;;;;;2.47;2.07;;;;;;;6.64;100.00;100216.66;6129389;28;20223;-68
2023/12/31 09:08:50;;;;;;;2.53;2.30;;;;;;;6.77;100.00;100222.72;6130958;28;20835;-69
2023/12/31 09:12:12;;;;;;;4.60;1.93;;;;;;;6.81;100.00;100211.63;6130400;28;20231;-69
2023/12/31 09:15:34;;;;;;;3.53;2.10;;;;;;;6.64;100.00;100209.50;6126400;28;20267;-69
2023/12/31 09:18:55;;;;;;;2.50;2.30;;;;;;;6.66;100.00;100204.84;6127230;28;20266;-68
2023/12/31 09:22:16;;;;;;;1.90;1.57;;;;;;;6.63;100.00;100218.53;6133630;28;20235;-69
2023/12/31 09:25:37;;;;;;;2.33;2.20;;;;;;;6.74;100.00;100209.59;6125372;28;20243;-69
2023/12/31 09:29:01;;;;;;;7.73;2.83;;;;;;;6.65;100.00;100196.97;6130237;28;20610;-69
2023/12/31 09:32:21;;;;;;;4.23;1.90;;;;;;;6.64;100.00;100192.56;6138110;28;20238;-68
2023/12/31 09:35:42;;;;;;;2.63;2.00;;;;;;;6.69;100.00;100182.34;6125659;28;20231;-69
2023/12/31 09:39:03;;;;;;;4.10;2.97;;;;;;;6.75;100.00;100189.84;6129400;28;20621;-69
2023/12/31 09:42:35;;;;;;;1.87;1.73;;;;;;;6.77;100.00;100178.03;6130923;28;20597;-69
2023/12/31 09:45:58;;;;;;;3.63;2.50;;;;;;;6.90;100.00;100183.22;6126696;28;20836;-68
2023/12/31 09:49:22;;;;;;;5.27;3.27;;;;;;;6.91;100.00;100167.00;6132943;28;20246;-69
2023/12/31 09:52:44;;;;;;;2.03;1.30;;;;;;;6.89;100.00;100168.09;6131401;28;20231;-69
2023/12/31 09:56:06;;;;;;;4.97;2.03;;;;;;;6.96;100.00;100170.16;6128293;28;20362;-69
2023/12/31 09:59:28;;;;;;;2.23;1.90;;;;;;;6.90;100.00;100141.19;6128878;28;20219;-69
2023/12/31 10:02:52;;;;;;;1.77;1.67;;;;;;;6.82;100.00;100134.78;6124029;28;20253;-69
2023/12/31 10:06:14;;;;;;;2.20;1.70;;;;;;;6.90;100.00;100126.94;6125154;28;20235;-68
2023/12/31 10:09:36;;;;;;;5.13;2.07;;;;;;;6.88;100.00;100131.59;6131522;28;20230;-69
2023/12/31 10:12:58;;;;;;;1.50;1.40;;;;;;;7.04;100.00;100119.41;6129315;28;20326;-68
2023/12/31 10:16:18;;;;;;;2.17;1.40;;;;;;;7.06;100.00;100116.59;6125205;28;20726;-69
2023/12/31 10:19:41;;;;;;;2.23;1.60;;;;;;;7.17;100.00;100116.53;6129140;28;20231;-69
2023/12/31 10:23:02;;;;;;;1.90;1.80;;;;;;;7.12;100.00;100105.34;6133487;28;20705;-69
2023/12/31 10:26:23;;;;;;;1.27;1.17;;;;;;;7.11;100.00;100096.44;6137246;28;20537;-68
2023/12/31 10:29:44;;;;;;;4.87;1.63;;;;;;;6.96;100.00;100099.63;6137284;28;20235;-69
2023/12/31 10:33:09;;;;;;;2.93;2.00;;;;;;;7.06;100.00;100092.47;6149355;28;20538;-70
2023/12/31 10:36:31;;;;;;;1.90;1.80;;;;;;;6.98;100.00;100082.44;6139883;28;20234;-69
2023/12/31 10:39:52;;;;;;;1.83;1.47;;;;;;;7.10;100.00;100075.16;6132754;28;20227;-69
2023/12/31 10:43:16;;;;;;;1.30;1.20;;;;;;;7.19;100.00;100072.53;6128819;28;20285;-69
2023/12/31 10:46:38;;;;;;;2.50;1.33;;;;;;;7.02;100.00;100061.59;6130111;28;20242;-69
2023/12/31 10:50:00;;;;;;;1.80;1.70;;;;;;;7.03;100.00;100063.28;6130859;28;20227;-69
2023/12/31 10:53:25;;;;;;;1.73;1.63;;;;;;;7.11;100.00;100045.53;6130224;28;20238;-69
2023/12/31 10:56:47;;;;;;;1.57;1.40;;;;;;;7.12;100.00;100044.56;6123626;28;20230;-70
2023/12/31 11:00:11;;;;;;;2.77;2.13;;;;;;;7.14;100.00;100018.47;6125360;28;20227;-69
2023/12/31 11:03:33;;;;;;;2.00;1.80;;;;;;;7.14;100.00;100026.53;6127456;28;20239;-70
2023/12/31 11:06:55;;;;;;;2.73;2.53;;;;;;;7.07;100.00;100022.66;6133429;28;20234;-69
2023/12/31 11:10:17;;;;;;;2.87;1.40;;;;;;;7.09;100.00;100019.88;6141620;28;20231;-69
2023/12/31 11:13:42;;;;;;;2.27;2.17;;;;;;;6.92;100.00;100015.16;6132819;28;20234;-69
2023/12/31 11:17:24;;;;;;;4.20;1.70;;;;;;;7.04;100.00;100001.53;6135923;28;20235;-70
2023/12/31 11:21:00;;;;;;;1.90;1.53;;;;;;;7.15;100.00;99984.50;6130610;28;20238;-70
2023/12/31 11:24:25;;;;;;;2.73;1.57;;;;;;;7.36;100.00;99990.63;6129072;28;20609;-70
2023/12/31 11:27:50;;;;;;;1.60;1.23;;;;;;;7.32;100.00;99978.47;6127040;28;20259;-69
2023/12/31 11:31:10;;;;;;;2.13;1.60;;;;;;;7.55;100.00;99966.50;6133571;28;20609;-69
2023/12/31 11:34:36;;;;;;;1.67;1.53;;;;;;;7.54;100.00;99958.59;6122735;28;20242;-68
2023/12/31 11:37:59;;;;;;;3.27;1.70;;;;;;;7.53;100.00;99957.75;6129317;28;21045;-68
2023/12/31 11:41:20;;;;;;;1.13;1.10;;;;;;;7.46;100.00;99937.00;6136050;28;20686;-69
2023/12/31 11:44:44;;;;;;;1.87;1.77;;;;;;;7.46;100.00;99934.31;6131664;28;20234;-68
2023/12/31 11:48:06;;;;;;;2.20;1.63;;;;;;;7.51;100.00;99927.53;6129115;28;20223;-69
2023/12/31 11:51:30;;;;;;;3.70;2.43;;;;;;;7.89;100.00;99922.19;6128255;28;20234;-67
2023/12/31 11:54:52;;;;;;;2.30;2.10;;;;;;;7.88;100.00;99933.06;6128711;28;20239;-67
2023/12/31 11:58:13;;;;;;;2.07;1.70;;;;;;;7.70;100.00;99930.25;6139367;28;20470;-67
2023/12/31 12:01:36;;;;;;;1.50;1.40;;;;;;;7.90;100.00;99915.84;6131185;28;20242;-67
2023/12/31 12:05:00;;;;;;;2.03;1.93;;;;;;;8.36;100.00;99909.72;6137768;28;20693;-67
2023/12/31 12:08:21;;;;;;;2.40;1.40;;;;;;;9.41;100.00;99901.09;6131468;28;20700;-67
2023/12/31 12:11:45;;;;;;;2.50;2.27;;;;;;;9.30;100.00;99895.09;6137148;28;20309;-66
2023/12/31 12:15:06;;;;;;;2.10;2.00;;;;;;;10.05;100.00;99894.59;6139466;28;20497;-67
2023/12/31 12:18:29;;;;;;;3.80;2.33;;;;;;;10.26;100.00;99881.66;6133374;28;20231;-66
2023/12/31 12:21:50;;;;;;;2.00;1.73;;;;;;;9.82;100.00;99875.41;6138602;28;20267;-67
2023/12/31 12:25:11;;;;;;;3.17;1.53;;;;;;;10.08;100.00;99868.19;6138625;28;20231;-67
2023/12/31 12:28:33;;;;;;;3.50;2.00;;;;;;;9.62;100.00;99860.41;6141319;28;20234;-68
2023/12/31 12:31:54;;;;;;;4.33;2.20;;;;;;;8.80;100.00;99862.44;6150643;28;20227;-67
2023/12/31 12:35:17;;;;;;;2.77;1.90;;;;;;;8.56;100.00;99859.44;6136236;28;20276;-67
2023/12/31 12:38:38;;;;;;;2.60;1.70;;;;;;;8.30;100.00;99858.44;6143668;28;20227;-68
2023/12/31 12:42:01;;;;;;;2.43;2.23;;;;;;;8.45;100.00;99848.91;6140769;28;20231;-67
2023/12/31 12:45:23;;;;;;;1.57;1.47;;;;;;;8.31;100.00;99847.53;6143561;28;20633;-67
2023/12/31 12:48:48;;;;;;;2.60;2.00;;;;;;;8.27;100.00;99832.72;6140126;28;20231;-66
2023/12/31 12:52:10;;;;;;;4.50;3.07;;;;;;;8.17;100.00;99823.81;6145886;28;20613;-67
2023/12/31 12:55:31;;;;;;;2.53;1.70;;;;;;;8.25;100.00;99823.06;6136287;28;20659;-68
2023/12/31 12:58:53;;;;;;;2.70;2.10;;;;;;;8.31;100.00;99830.56;6137883;28;20569;-67
2023/12/31 13:02:14;;;;;;;2.37;1.97;;;;;;;8.20;100.00;99828.06;6132516;28;20227;-68
2023/12/31 13:05:35;;;;;;;1.67;1.50;;;;;;;8.06;100.00;99821.31;6133339;28;20227;-68
2023/12/31 13:08:57;;;;;;;2.67;1.70;;;;;;;8.02;100.00;99825.28;6132169;28;20522;-67
2023/12/31 13:12:18;;;;;;;2.40;2.17;;;;;;;8.15;100.00;99819.59;6141742;28;20247;-67
2023/12/31 13:15:39;;;;;;;1.40;1.30;;;;;;;7.96;100.00;99820.50;6135874;28;20518;-66
2023/12/31 13:19:00;;;;;;;11.10;8.30;;;;;;;9.06;100.00;99823.06;6141788;28;20494;-67
2023/12/31 13:22:21;;;;;;;7.80;7.17;;;;;;;8.95;100.00;99820.59;6136102;28;20561;-67
2023/12/31 13:25:44;;;;;;;41.47;37.23;;;;;;;8.63;100.00;99813.03;6137051;28;20251;-68
2023/12/31 13:29:05;;;;;;;13.20;12.10;;;;;;;8.29;100.00;99798.50;6139856;28;20239;-66
2023/12/31 13:32:26;;;;;;;44.87;27.43;;;;;;;9.29;100.00;99802.81;6137932;28;20568;-68
2023/12/31 13:35:47;;;;;;;15.90;14.00;;;;;;;9.22;100.00;99799.03;6135094;28;20239;-67
2023/12/31 13:39:08;;;;;;;32.53;19.37;;;;;;;8.95;100.00;99798.28;6139153;28;20684;-67
2023/12/31 13:42:31;;;;;;;17.83;16.07;;;;;;;9.22;100.00;99801.72;6137667;28;20235;-67
2023/12/31 13:45:52;;;;;;;62.47;57.07;;;;;;;9.85;100.00;99802.41;6141631;28;20242;-68
2023/12/31 13:49:12;;;;;;;4.93;4.30;;;;;;;9.03;100.00;99791.16;6136783;28;20242;-67
2023/12/31 13:52:34;;;;;;;3.97;2.40;;;;;;;8.75;100.00;99784.97;6141152;28;20251;-67
2023/12/31 13:55:55;;;;;;;3.33;1.83;;;;;;;8.91;100.00;99789.66;6138219;28;20231;-67
2023/12/31 13:59:17;;;;;;;2.50;2.30;;;;;;;8.55;100.00;99779.88;6139987;28;20262;-67
2023/12/31 14:02:38;;;;;;;1.80;1.70;;;;;;;8.27;100.00;99784.38;6134821;28;20681;-68
2023/12/31 14:05:59;;;;;;;2.63;2.43;;;;;;;8.24;100.00;99786.50;6135255;28;20672;-67
2023/12/31 14:09:20;;;;;;;5.00;3.83;;;;;;;8.04;100.00;99785.72;6145537;28;20235;-68
2023/12/31 14:12:43;;;;;;;2.37;2.17;;;;;;;8.03;100.00;99778.69;6130942;28;20230;-68
2023/12/31 14:16:06;;;;;;;1.90;1.77;;;;;;;8.05;100.00;99776.69;6132834;28;21326;-68
2023/12/31 14:19:27;;;;;;;1.60;1.50;;;;;;;8.03;100.00;99776.00;6131977;28;20239;-67
2023/12/31 14:22:48;;;;;;;4.73;3.00;;;;;;;8.11;100.00;99777.94;6128960;28;20254;-67
2023/12/31 14:26:09;;;;;;;1.80;1.70;;;;;;;7.98;100.00;99778.25;6127604;28;20625;-68
2023/12/31 14:29:30;;;;;;;2.50;2.30;;;;;;;7.80;100.00;99783.53;6131549;28;20227;-68
2023/12/31 14:32:53;;;;;;;2.67;2.47;;;;;;;7.97;100.00;99772.03;6141264;28;20223;-67
2023/12/31 14:36:14;;;;;;;1.90;1.50;;;;;;;7.87;100.00;99778.44;6138370;28;20239;-68
2023/12/31 14:39:34;;;;;;;2.60;2.40;;;;;;;7.76;100.00;99782.13;6146135;28;20243;-68
2023/12/31 14:42:55;;;;;;;2.90;2.17;;;;;;;7.82;100.00;99786.91;6132925;28;20231;-68
2023/12/31 14:46:16;;;;;;;3.33;2.60;;;;;;;7.80;100.00;99793.44;6125840;28;21882;-67
2023/12/31 14:49:38;;;;;;;3.30;3.00;;;;;;;7.80;100.00;99791.56;6125365;28;20241;-68
2023/12/31 14:52:59;;;;;;;2.60;2.40;;;;;;;7.88;100.00;99785.50;6126401;28;20243;-68
2023/12/31 14:56:21;;;;;;;2.33;2.13;;;;;;;7.82;100.00;99778.84;6125961;28;20243;-68
2023/12/31 14:59:41;;;;;;;2.17;1.97;;;;;;;7.88;100.00;99785.50;6125695;28;20223;-67
2023/12/31 15:03:03;;;;;;;2.33;2.07;;;;;;;7.92;100.00;99779.69;6128592;28;20231;-67
2023/12/31 15:06:26;;;;;;;3.53;2.57;;;;;;;7.89;100.00;99782.66;6129062;28;20235;-67
2023/12/31 15:09:46;;;;;;;2.47;2.10;;;;;;;7.82;100.00;99778.03;6129357;28;20231;-67
2023/12/31 15:13:08;;;;;;;2.33;2.13;;;;;;;7.89;100.00;99765.72;6126687;28;20321;-67
2023/12/31 15:16:28;;;;;;;2.90;1.97;;;;;;;7.89;100.00;99771.06;6127309;28;20243;-67
2023/12/31 15:19:49;;;;;;;4.00;2.37;;;;;;;7.94;100.00;99769.66;6128623;28;20236;-68
2023/12/31 15:23:12;;;;;;;3.30;3.03;;;;;;;7.89;100.00;99766.56;6132577;28;20235;-67
2023/12/31 15:26:33;;;;;;;3.93;2.70;;;;;;;7.90;100.00;99780.84;6130290;28;20247;-67
2023/12/31 15:29:54;;;;;;;3.40;2.17;;;;;;;7.88;100.00;99788.19;6127741;28;20243;-68
2023/12/31 15:33:15;;;;;;;5.53;2.60;;;;;;;7.88;100.00;99793.53;6131753;28;20278;-67
2023/12/31 15:36:35;;;;;;;3.00;2.77;;;;;;;7.88;100.00;99797.09;6141104;28;20255;-67
2023/12/31 15:39:57;;;;;;;3.17;2.87;;;;;;;7.95;100.00;99773.16;6129581;28;20234;-66